createdAt,value
2023-04-11T00:00:48.242Z,52.4
2023-04-11T00:02:48.481Z,52.6
2023-04-11T00:04:48.257Z,52.6
2023-04-11T00:06:48.316Z,52.7
2023-04-11T00:08:48.243Z,52.9
2023-04-11T00:10:48.564Z,52.9
2023-04-11T00:12:48.203Z,53.1
2023-04-11T00:14:48.240Z,53.2
2023-04-11T00:16:48.264Z,53.4
2023-04-11T00:18:48.243Z,53.5
2023-04-11T00:20:48.204Z,53.5
2023-04-11T00:22:48.230Z,53.8
2023-04-11T00:24:48.208Z,53.9
2023-04-11T00:26:48.197Z,53.9
2023-04-11T00:28:48.159Z,54.1
2023-04-11T00:30:48.210Z,54.2
2023-04-11T00:32:48.263Z,54.4
2023-04-11T00:34:48.187Z,54.3
2023-04-11T00:36:48.321Z,54.4
2023-04-11T00:38:48.284Z,54.5
2023-04-11T00:40:48.170Z,54.6
2023-04-11T00:42:48.176Z,54.9
2023-04-11T00:44:48.154Z,54.9
2023-04-11T00:46:48.181Z,55.1
2023-04-11T00:48:48.229Z,55.4
2023-04-11T00:50:48.172Z,55.2
2023-04-11T00:52:48.186Z,55.5
2023-04-11T00:54:48.189Z,55.5
2023-04-11T00:56:48.128Z,55.6
2023-04-11T00:58:48.158Z,55.5
2023-04-11T01:00:48.167Z,55.6
2023-04-11T01:02:48.188Z,56.1
2023-04-11T01:04:48.136Z,56.2
2023-04-11T01:06:48.151Z,56.3
2023-04-11T01:08:48.168Z,56.3
2023-04-11T01:10:48.299Z,56.5
2023-04-11T01:12:48.149Z,56.6
2023-04-11T01:14:48.118Z,56.6
2023-04-11T01:16:48.161Z,56.9
2023-04-11T01:18:48.122Z,56.9
2023-04-11T01:20:48.144Z,56.8
2023-04-11T01:22:48.120Z,57.1
2023-04-11T01:24:48.130Z,57
2023-04-11T01:26:48.161Z,57.1
2023-04-11T01:28:48.157Z,57.2
2023-04-11T01:30:48.158Z,57.3
2023-04-11T01:32:48.147Z,57.8
2023-04-11T01:34:48.094Z,57.7
2023-04-11T01:36:48.101Z,57.7
2023-04-11T01:38:48.131Z,57.9
2023-04-11T01:40:48.090Z,57.9
2023-04-11T01:42:48.118Z,58.4
2023-04-11T01:44:48.107Z,58.3
2023-04-11T01:46:48.118Z,58.4
2023-04-11T01:48:48.185Z,58.8
2023-04-11T01:50:48.108Z,58.6
2023-04-11T01:52:48.071Z,59
2023-04-11T01:54:48.250Z,58.9
2023-04-11T01:56:48.113Z,59
2023-04-11T01:58:48.059Z,59
2023-04-11T02:00:48.065Z,59.2
2023-04-11T02:02:48.135Z,59.4
2023-04-11T02:04:48.081Z,59.4
2023-04-11T02:06:48.136Z,59.3
2023-04-11T02:08:48.103Z,59.3
2023-04-11T02:10:48.054Z,59.4
2023-04-11T02:12:48.071Z,59.9
2023-04-11T02:14:48.081Z,59.8
2023-04-11T02:16:48.079Z,59.8
2023-04-11T02:18:48.060Z,59.8
2023-04-11T02:20:48.082Z,59.9
2023-04-11T02:22:48.051Z,60.4
2023-04-11T02:24:48.024Z,60.3
2023-04-11T02:26:48.052Z,60.3
2023-04-11T02:28:48.084Z,60.4
2023-04-11T02:30:48.488Z,60.4
2023-04-11T02:32:48.047Z,61
2023-04-11T02:34:48.022Z,61.1
2023-04-11T02:36:48.034Z,61
2023-04-11T02:38:48.021Z,61.1
2023-04-11T02:40:48.044Z,61.1
2023-04-11T02:42:48.018Z,61.3
2023-04-11T02:44:48.133Z,61.2
2023-04-11T02:46:48.028Z,61.2
2023-04-11T02:48:48.005Z,61.2
2023-04-11T02:50:48.007Z,61.3
2023-04-11T02:52:48.040Z,61.8
2023-04-11T02:54:48.013Z,61.7
2023-04-11T02:56:48.019Z,61.8
2023-04-11T02:58:48.024Z,61.9
2023-04-11T03:00:47.993Z,61.7
2023-04-11T03:02:47.991Z,62.3
2023-04-11T03:04:47.974Z,62.1
2023-04-11T03:06:47.982Z,62.1
2023-04-11T03:08:48.007Z,62.3
2023-04-11T03:10:47.982Z,62.3
2023-04-11T03:12:47.970Z,62.9
2023-04-11T03:14:47.983Z,62.8
2023-04-11T03:16:48.005Z,62.8
2023-04-11T03:18:48.001Z,62.8
2023-04-11T03:20:47.976Z,62.8
2023-04-11T03:22:47.955Z,63.3
2023-04-11T03:24:47.972Z,63.2
2023-04-11T03:26:47.997Z,63.2
2023-04-11T03:28:47.976Z,63.1
2023-04-11T03:30:47.975Z,63.2
2023-04-11T03:32:48.030Z,63.5
2023-04-11T03:34:47.968Z,63.4
2023-04-11T03:36:47.981Z,63.5
2023-04-11T03:38:47.985Z,63.3
2023-04-11T03:40:47.955Z,63.3
2023-04-11T03:42:47.958Z,63.7
2023-04-11T03:44:47.990Z,63.6
2023-04-11T03:46:48.003Z,63.6
2023-04-11T03:48:47.933Z,63.6
2023-04-11T03:50:47.961Z,63.7
2023-04-11T03:52:47.935Z,64
2023-04-11T03:54:48.002Z,63.9
2023-04-11T03:56:47.906Z,64
2023-04-11T03:58:47.932Z,64
2023-04-11T04:00:47.951Z,64
2023-04-11T04:02:48.004Z,64.2
2023-04-11T04:04:48.135Z,64.1
2023-04-11T04:06:47.930Z,64.1
2023-04-11T04:08:47.899Z,64.2
2023-04-11T04:10:47.940Z,64.2
2023-04-11T04:12:47.896Z,64.5
2023-04-11T04:14:47.916Z,64.3
2023-04-11T04:16:47.913Z,64.4
2023-04-11T04:18:47.936Z,64.5
2023-04-11T04:20:47.892Z,64.5
2023-04-11T04:22:47.881Z,64.8
2023-04-11T04:24:47.927Z,64.7
2023-04-11T04:26:47.909Z,64.7
2023-04-11T04:28:47.911Z,65
2023-04-11T04:30:47.887Z,64.9
2023-04-11T04:32:48.074Z,65.2
2023-04-11T04:34:50.418Z,65.1
2023-04-11T04:36:48.084Z,65.1
2023-04-11T04:38:47.955Z,65.1
2023-04-11T04:40:49.676Z,65.1
2023-04-11T04:42:47.900Z,65.5
2023-04-11T04:44:47.867Z,65.3
2023-04-11T04:46:47.897Z,65.3
2023-04-11T04:48:47.877Z,65.3
2023-04-11T04:50:47.882Z,65.3
2023-04-11T04:52:47.902Z,65.7
2023-04-11T04:54:47.928Z,65.6
2023-04-11T04:56:47.924Z,65.6
2023-04-11T04:58:47.914Z,65.6
2023-04-11T05:00:48.134Z,65.6
2023-04-11T05:02:48.437Z,65.9
2023-04-11T05:04:48.165Z,65.8
2023-04-11T05:06:47.894Z,65.8
2023-04-11T05:08:48.154Z,65.9
2023-04-11T05:10:48.244Z,66.1
2023-04-11T05:12:48.086Z,66.1
2023-04-11T05:14:48.056Z,66
2023-04-11T05:16:48.147Z,66
2023-04-11T05:18:47.984Z,65.9
2023-04-11T05:20:48.234Z,66
2023-04-11T05:22:48.490Z,66.2
2023-04-11T05:24:47.894Z,66.1
2023-04-11T05:26:47.887Z,66.2
2023-04-11T05:28:47.906Z,66.2
2023-04-11T05:30:47.930Z,66.2
2023-04-11T05:32:47.997Z,66.4
2023-04-11T05:34:47.991Z,66.4
2023-04-11T05:36:47.855Z,66.3
2023-04-11T05:38:47.883Z,66.4
2023-04-11T05:40:47.836Z,66.4
2023-04-11T05:42:48.136Z,66.7
2023-04-11T05:44:47.847Z,66.7
2023-04-11T05:46:47.853Z,66.7
2023-04-11T05:48:47.990Z,66.7
2023-04-11T05:50:48.213Z,66.7
2023-04-11T05:52:48.146Z,66.9
2023-04-11T05:54:48.099Z,66.9
2023-04-11T05:56:48.203Z,66.8
2023-04-11T05:58:48.211Z,66.8
2023-04-11T06:00:48.143Z,66.9
2023-04-11T06:02:48.312Z,66.9
2023-04-11T06:04:48.067Z,66.9
2023-04-11T06:06:48.105Z,66.8
2023-04-11T06:08:48.032Z,66.9
2023-04-11T06:10:47.979Z,66.9
2023-04-11T06:12:48.135Z,67.1
2023-04-11T06:14:48.060Z,67
2023-04-11T06:16:48.142Z,66.9
2023-04-11T06:18:48.195Z,66.9
2023-04-11T06:20:48.070Z,67
2023-04-11T06:22:48.124Z,67.3
2023-04-11T06:24:48.051Z,67.2
2023-04-11T06:26:48.133Z,67.3
2023-04-11T06:28:48.194Z,67.3
2023-04-11T06:30:49.303Z,67.3
2023-04-11T06:32:48.126Z,67.5
2023-04-11T06:34:48.015Z,67.4
2023-04-11T06:36:48.155Z,67.4
2023-04-11T06:38:47.989Z,67.5
2023-04-11T06:40:48.063Z,67.5
2023-04-11T06:42:48.138Z,67.6
2023-04-11T06:44:48.053Z,67.5
2023-04-11T06:46:48.073Z,67.4
2023-04-11T06:48:48.051Z,67.4
2023-04-11T06:50:49.324Z,67.4
2023-04-11T06:52:48.040Z,67.7
2023-04-11T06:54:48.028Z,67.6
2023-04-11T06:56:48.054Z,67.7
2023-04-11T06:58:47.982Z,67.6
2023-04-11T07:00:48.038Z,67.6
2023-04-11T07:02:48.231Z,67.7
2023-04-11T07:04:48.118Z,67.7
2023-04-11T07:06:48.081Z,67.7
2023-04-11T07:08:48.060Z,67.6
2023-04-11T07:10:48.021Z,67.6
2023-04-11T07:12:48.028Z,67.7
2023-04-11T07:14:48.104Z,67.7
2023-04-11T07:16:48.050Z,67.6
2023-04-11T07:18:47.950Z,67.6
2023-04-11T07:20:48.045Z,67.6
2023-04-11T07:22:48.035Z,67.7
2023-04-11T07:24:48.042Z,67.7
2023-04-11T07:26:47.836Z,67.7
2023-04-11T07:28:48.145Z,67.7
2023-04-11T07:30:48.092Z,67.8
2023-04-11T07:32:48.177Z,67.9
2023-04-11T07:34:47.960Z,67.8
2023-04-11T07:36:48.008Z,67.8
2023-04-11T07:38:48.066Z,67.9
2023-04-11T07:40:47.960Z,67.9
2023-04-11T07:42:47.925Z,68.1
2023-04-11T07:44:47.838Z,68.1
2023-04-11T07:46:47.940Z,68.2
2023-04-11T07:48:48.013Z,68.2
2023-04-11T07:50:47.964Z,68.1
2023-04-11T07:52:47.933Z,68.3
2023-04-11T07:54:48.041Z,68.3
2023-04-11T07:56:48.041Z,68.2
2023-04-11T07:58:47.925Z,68.3
2023-04-11T08:00:47.975Z,68.2
2023-04-11T08:02:48.075Z,68.3
2023-04-11T08:04:47.974Z,68.3
2023-04-11T08:06:47.915Z,68.3
2023-04-11T08:08:48.108Z,68.3
2023-04-11T08:10:49.111Z,68.4
2023-04-11T08:12:47.877Z,68.5
2023-04-11T08:14:47.881Z,68.5
2023-04-11T08:16:48.003Z,68.5
2023-04-11T08:18:48.004Z,68.5
2023-04-11T08:20:47.929Z,68.5
2023-04-11T08:22:47.863Z,68.7
2023-04-11T08:24:47.952Z,68.7
2023-04-11T08:26:47.948Z,68.7
2023-04-11T08:28:47.923Z,68.7
2023-04-11T08:30:47.908Z,68.8
2023-04-11T08:32:47.759Z,68.9
2023-04-11T08:34:47.762Z,68.9
2023-04-11T08:37:02.383Z,68.9
2023-04-11T08:38:47.941Z,68.9
2023-04-11T08:40:47.904Z,69
2023-04-11T08:42:47.917Z,69.2
2023-04-11T08:44:47.926Z,69.2
2023-04-11T08:46:48.032Z,69.3
2023-04-11T08:48:47.922Z,69.3
2023-04-11T08:50:47.857Z,68.9
2023-04-11T08:52:47.826Z,69
2023-04-11T08:54:47.883Z,69
2023-04-11T08:56:47.918Z,69
2023-04-11T08:58:47.947Z,68.9
2023-04-11T09:00:47.848Z,69
2023-04-11T09:02:48.051Z,69.1
2023-04-11T09:04:47.823Z,69.1
2023-04-11T09:06:47.890Z,69.2
2023-04-11T09:08:47.859Z,69.1
2023-04-11T09:10:47.874Z,69.1
2023-04-11T09:12:47.802Z,69.2
2023-04-11T09:14:47.947Z,69.2
2023-04-11T09:16:47.869Z,69.1
2023-04-11T09:18:47.898Z,69.1
2023-04-11T09:20:47.720Z,69.1
2023-04-11T09:22:47.841Z,69.2
2023-04-11T09:24:47.956Z,69.2
2023-04-11T09:26:47.646Z,69.2
2023-04-11T09:28:47.921Z,69
2023-04-11T09:30:47.910Z,69.2
2023-04-11T09:32:47.917Z,69.4
2023-04-11T09:34:47.817Z,69.4
2023-04-11T09:36:47.810Z,69.4
2023-04-11T09:38:47.830Z,69.4
2023-04-11T09:40:47.824Z,69.5
2023-04-11T09:42:47.758Z,69.6
2023-04-11T09:44:47.672Z,69.5
2023-04-11T09:46:47.860Z,69.5
2023-04-11T09:48:47.674Z,69.6
2023-04-11T09:50:47.678Z,69.6
2023-04-11T09:52:47.662Z,69.7
2023-04-11T09:54:47.768Z,69.7
2023-04-11T09:56:47.766Z,69.7
2023-04-11T09:58:47.758Z,69.8
2023-04-11T10:00:47.756Z,69.8
2023-04-11T10:02:47.851Z,69.9
2023-04-11T10:04:47.731Z,69.9
2023-04-11T10:06:47.754Z,69.9
2023-04-11T10:08:47.753Z,69.9
2023-04-11T10:10:47.830Z,69.9
2023-04-11T10:12:47.737Z,70.1
2023-04-11T10:14:47.649Z,70
2023-04-11T10:16:47.791Z,70
2023-04-11T10:18:47.760Z,70.1
2023-04-11T10:20:47.702Z,70.1
2023-04-11T10:22:47.704Z,70.3
2023-04-11T10:24:47.776Z,70.2
2023-04-11T10:26:47.773Z,70.2
2023-04-11T10:28:47.665Z,70.3
2023-04-11T10:30:47.639Z,70.3
2023-04-11T10:32:47.727Z,70.5
2023-04-11T10:34:47.709Z,70.4
2023-04-11T10:36:47.815Z,70.4
2023-04-11T10:38:47.610Z,70.4
2023-04-11T10:40:47.692Z,70.4
2023-04-11T10:42:47.807Z,70.5
2023-04-11T10:44:47.778Z,70.4
2023-04-11T10:46:47.704Z,70.4
2023-04-11T10:48:47.586Z,70.4
2023-04-11T10:50:47.544Z,70.4
2023-04-11T10:52:47.627Z,70.5
2023-04-11T10:54:47.581Z,70.5
2023-04-11T10:56:47.566Z,70.5
2023-04-11T10:58:47.547Z,70.5
2023-04-11T11:00:47.610Z,70.5
2023-04-11T11:02:47.657Z,70.5
2023-04-11T11:04:47.678Z,70.5
2023-04-11T11:06:56.660Z,70.4
2023-04-11T11:08:47.504Z,70.5
2023-04-11T11:10:47.517Z,70.5
2023-04-11T11:12:47.526Z,70.5
2023-04-11T11:14:47.635Z,70.4
2023-04-11T11:16:47.574Z,70.4
2023-04-11T11:18:47.532Z,70.5
2023-04-11T11:20:47.526Z,70.5
2023-04-11T11:22:47.554Z,70.5
2023-04-11T11:24:47.500Z,70.5
2023-04-11T11:26:47.516Z,70.5
2023-04-11T11:28:47.547Z,70.4
2023-04-11T11:30:47.522Z,70.4
2023-04-11T11:32:47.473Z,70.5
2023-04-11T11:34:47.349Z,70.4
2023-04-11T11:36:47.355Z,70.4
2023-04-11T11:38:47.327Z,70.4
2023-04-11T11:40:47.341Z,70.4
2023-04-11T11:42:47.360Z,70.5
2023-04-11T11:44:47.344Z,70.5
2023-04-11T11:46:47.436Z,70.4
2023-04-11T11:48:47.313Z,70.5
2023-04-11T11:50:47.339Z,70.5
2023-04-11T11:52:47.340Z,70.6
2023-04-11T11:54:48.453Z,70.6
2023-04-11T11:56:47.329Z,70.7
2023-04-11T11:58:47.346Z,70.6
2023-04-11T12:00:47.301Z,70.6
2023-04-11T12:02:47.440Z,70.7
2023-04-11T12:04:47.476Z,70.8
2023-04-11T12:06:47.332Z,70.8
2023-04-11T12:08:47.596Z,70.7
2023-04-11T12:10:47.276Z,70.8
2023-04-11T12:12:52.975Z,70.9
2023-04-11T12:14:47.312Z,70.8
2023-04-11T12:16:47.361Z,70.8
2023-04-11T12:18:47.370Z,70.9
2023-04-11T12:20:47.280Z,70.9
2023-04-11T12:22:47.342Z,70.9
2023-04-11T12:24:47.281Z,71.4
2023-04-11T12:27:02.729Z,71.2
2023-04-11T12:28:47.295Z,71.2
2023-04-11T12:30:47.286Z,71.4
2023-04-11T12:32:47.307Z,71.2
2023-04-11T12:34:47.324Z,71.6
2023-04-11T12:36:47.283Z,71.6
2023-04-11T12:38:47.283Z,70.9
2023-04-11T12:40:47.314Z,70.7
2023-04-11T12:42:56.123Z,70.6
2023-04-11T12:44:47.260Z,70.4
2023-04-11T12:46:47.273Z,70.3
2023-04-11T12:48:47.233Z,70.2
2023-04-11T12:50:47.297Z,70.1
2023-04-11T12:52:47.258Z,70.2
2023-04-11T12:54:47.253Z,70.1
2023-04-11T12:56:47.280Z,70.2
2023-04-11T12:58:47.472Z,70.3
2023-04-11T13:00:47.247Z,70
2023-04-11T13:02:47.351Z,69.2
2023-04-11T13:04:47.247Z,68.3
2023-04-11T13:06:47.219Z,68.4
2023-04-11T13:08:47.269Z,68.3
2023-04-11T13:10:47.226Z,67.8
2023-04-11T13:12:47.242Z,68.1
2023-04-11T13:14:47.245Z,67.8
2023-04-11T13:16:47.289Z,67.2
2023-04-11T13:18:47.275Z,67
2023-04-11T13:20:47.209Z,66.8
2023-04-11T13:22:47.216Z,66.7
2023-04-11T13:24:47.213Z,66.1
2023-04-11T13:26:47.242Z,65.1
2023-04-11T13:28:47.201Z,65.6
2023-04-11T13:30:47.175Z,65.1
2023-04-11T13:32:47.213Z,65.6
2023-04-11T13:34:47.209Z,64.1
2023-04-11T13:36:47.199Z,64
2023-04-11T13:38:47.215Z,63.7
2023-04-11T13:40:47.214Z,63.7
2023-04-11T13:42:48.452Z,63.2
2023-04-11T13:44:47.180Z,62.2
2023-04-11T13:46:47.178Z,61.9
2023-04-11T13:48:47.185Z,62.8
2023-04-11T13:50:47.204Z,61.9
2023-04-11T13:52:47.173Z,61.7
2023-04-11T13:54:47.181Z,61.7
2023-04-11T13:56:47.163Z,61.4
2023-04-11T13:58:47.191Z,60.5
2023-04-11T14:00:47.207Z,61.4
2023-04-11T14:02:47.438Z,60.1
2023-04-11T14:04:47.155Z,58.8
2023-04-11T14:06:47.214Z,59.3
2023-04-11T14:08:48.205Z,58.9
2023-04-11T14:10:47.211Z,59.3
2023-04-11T14:12:47.176Z,59.4
2023-04-11T14:14:47.167Z,57.9
2023-04-11T14:16:47.222Z,58.8
2023-04-11T14:18:47.140Z,55.9
2023-04-11T14:20:47.209Z,55.3
2023-04-11T14:22:47.117Z,55.7
2023-04-11T14:24:47.150Z,55.9
2023-04-11T14:26:47.135Z,55.9
2023-04-11T14:28:47.212Z,56.3
2023-04-11T14:30:47.166Z,54.7
2023-04-11T14:32:47.170Z,56.6
2023-04-11T14:34:47.133Z,55.7
2023-04-11T14:36:47.163Z,56.4
2023-04-11T14:38:47.132Z,56.1
2023-04-11T14:40:47.082Z,55.5
2023-04-11T14:42:47.203Z,55.6
2023-04-11T14:44:47.128Z,54.9
2023-04-11T14:46:47.102Z,53.1
2023-04-11T14:48:47.102Z,53.7
2023-04-11T14:50:47.091Z,51.9
2023-04-11T14:52:47.105Z,52.2
2023-04-11T14:54:47.097Z,51.3
2023-04-11T14:56:47.094Z,52.9
2023-04-11T14:58:47.131Z,49.8
2023-04-11T15:00:47.120Z,49.7
2023-04-11T15:02:47.140Z,50.6
2023-04-11T15:04:47.193Z,51.3
2023-04-11T15:06:47.098Z,50.7
2023-04-11T15:08:47.100Z,52.2
2023-04-11T15:10:47.170Z,51.7
2023-04-11T15:12:47.157Z,46.9
2023-04-11T15:14:47.094Z,47.3
2023-04-11T15:16:47.133Z,47.2
2023-04-11T15:18:49.538Z,47.5
2023-04-11T15:20:47.094Z,46.9
2023-04-11T15:22:47.069Z,48.5
2023-04-11T15:24:47.054Z,49.1
2023-04-11T15:26:47.046Z,49
2023-04-11T15:28:47.066Z,48.9
2023-04-11T15:30:47.040Z,49.2
2023-04-11T15:32:47.071Z,49.6
2023-04-11T15:34:47.066Z,49.9
2023-04-11T15:36:47.028Z,50.3
2023-04-11T15:38:47.069Z,50.3
2023-04-11T15:40:47.061Z,50.8
2023-04-11T15:42:47.049Z,47.5
2023-04-11T15:44:47.011Z,47
2023-04-11T15:46:49.045Z,47.1
2023-04-11T15:48:47.021Z,46.8
2023-04-11T15:50:47.065Z,48.3
2023-04-11T15:52:47.017Z,47.1
2023-04-11T15:54:47.007Z,47.7
2023-04-11T15:56:47.034Z,47.7
2023-04-11T15:58:47.048Z,48.3
2023-04-11T16:00:47.038Z,48.6
2023-04-11T16:02:47.206Z,42.5
2023-04-11T16:04:48.419Z,45.2
2023-04-11T16:06:47.029Z,45
2023-04-11T16:08:47.000Z,44.1
2023-04-11T16:10:47.024Z,44.8
2023-04-11T16:12:47.015Z,43.6
2023-04-11T16:14:47.021Z,44.2
2023-04-11T16:16:47.028Z,45
2023-04-11T16:18:47.022Z,45
2023-04-11T16:20:46.981Z,45.4
2023-04-11T16:22:46.984Z,46.5
2023-04-11T16:24:47.007Z,45.4
2023-04-11T16:26:47.007Z,46.8
2023-04-11T16:28:46.999Z,46.3
2023-04-11T16:30:48.382Z,43.8
2023-04-11T16:32:47.104Z,45.6
2023-04-11T16:34:46.996Z,44.4
2023-04-11T16:36:46.981Z,44
2023-04-11T16:38:46.991Z,43.1
2023-04-11T16:40:46.983Z,43.3
2023-04-11T16:42:46.986Z,43.1
2023-04-11T16:44:46.978Z,44
2023-04-11T16:46:46.959Z,44.7
2023-04-11T16:48:46.955Z,43.6
2023-04-11T16:50:46.940Z,45
2023-04-11T16:52:47.079Z,42
2023-04-11T16:54:46.957Z,39.5
2023-04-11T16:56:46.970Z,41.4
2023-04-11T16:58:46.962Z,41.8
2023-04-11T17:00:47.066Z,41.5
2023-04-11T17:02:46.985Z,42.7
2023-04-11T17:04:47.102Z,38.8
2023-04-11T17:06:47.025Z,39.6
2023-04-11T17:08:46.938Z,38.1
2023-04-11T17:10:46.967Z,39.9
2023-04-11T17:12:46.945Z,41
2023-04-11T17:14:46.950Z,42.1
2023-04-11T17:16:46.947Z,42.8
2023-04-11T17:18:46.951Z,43
2023-04-11T17:20:46.922Z,44.2
2023-04-11T17:22:46.952Z,41.7
2023-04-11T17:24:46.912Z,41.1
2023-04-11T17:26:46.906Z,42.9
2023-04-11T17:28:46.898Z,43.2
2023-04-11T17:30:46.994Z,40.6
2023-04-11T17:32:46.968Z,41.8
2023-04-11T17:34:46.930Z,42
2023-04-11T17:36:46.907Z,42.6
2023-04-11T17:38:46.987Z,42.8
2023-04-11T17:40:46.951Z,42.9
2023-04-11T17:42:46.932Z,43.1
2023-04-11T17:44:46.952Z,42.7
2023-04-11T17:46:46.953Z,43.5
2023-04-11T17:48:46.947Z,43.5
2023-04-11T17:50:46.894Z,41.2
2023-04-11T17:52:46.934Z,40.6
2023-04-11T17:54:46.883Z,40.2
2023-04-11T17:56:46.912Z,40.6
2023-04-11T17:58:47.945Z,40.4
2023-04-11T18:00:55.399Z,39.4
2023-04-11T18:02:46.965Z,38
2023-04-11T18:04:46.984Z,39.7
2023-04-11T18:06:47.047Z,38.3
2023-04-11T18:08:51.307Z,40.5
2023-04-11T18:10:46.894Z,39
2023-04-11T18:12:46.872Z,38.7
2023-04-11T18:14:46.857Z,39.2
2023-04-11T18:16:46.932Z,39.5
2023-04-11T18:18:46.867Z,36.1
2023-04-11T18:20:46.924Z,37
2023-04-11T18:22:46.883Z,38.3
2023-04-11T18:24:46.866Z,39.3
2023-04-11T18:26:46.891Z,39.4
2023-04-11T18:28:46.855Z,39.9
2023-04-11T18:30:46.838Z,40.8
2023-04-11T18:32:49.312Z,39.9
2023-04-11T18:34:46.881Z,38.2
2023-04-11T18:36:47.209Z,37.9
2023-04-11T18:38:47.237Z,37.9
2023-04-11T18:40:47.507Z,38
2023-04-11T18:42:47.127Z,39.3
2023-04-11T18:44:46.839Z,40.2
2023-04-11T18:46:47.133Z,40.4
2023-04-11T18:48:46.835Z,38.6
2023-04-11T18:50:46.845Z,39.5
2023-04-11T18:52:50.595Z,40.2
2023-04-11T18:54:46.846Z,40
2023-04-11T18:56:48.501Z,39.7
2023-04-11T18:58:49.669Z,40.2
2023-04-11T19:00:46.882Z,39.3
2023-04-11T19:02:47.083Z,37.2
2023-04-11T19:06:46.820Z,39.5
2023-04-11T19:08:46.835Z,39.7
2023-04-11T19:10:46.837Z,40
2023-04-11T19:12:46.861Z,40.2
2023-04-11T19:14:46.818Z,40
2023-04-11T19:16:46.899Z,40.4
2023-04-11T19:18:46.804Z,40.5
2023-04-11T19:20:46.805Z,40
2023-04-11T19:22:46.776Z,40.7
2023-04-11T19:24:46.800Z,39.1
2023-04-11T19:26:46.786Z,38
2023-04-11T19:28:46.825Z,38.6
2023-04-11T19:30:46.804Z,39
2023-04-11T19:32:46.853Z,38.4
2023-04-11T19:34:46.801Z,34.8
2023-04-11T19:36:46.764Z,36.9
2023-04-11T19:38:46.780Z,38.2
2023-04-11T19:40:46.750Z,35.6
2023-04-11T19:42:46.804Z,35.6
2023-04-11T19:44:46.774Z,36.8
2023-04-11T19:46:46.752Z,36.4
2023-04-11T19:48:46.802Z,35.6
2023-04-11T19:50:46.781Z,36.6
2023-04-11T19:52:46.746Z,35.2
2023-04-11T19:54:46.824Z,33.8
2023-04-11T19:56:46.777Z,35.4
2023-04-11T19:58:46.792Z,36.1
2023-04-11T20:00:46.795Z,35.8
2023-04-11T20:02:46.978Z,32.8
2023-04-11T20:04:46.755Z,33.3
2023-04-11T20:06:46.727Z,35.3
2023-04-11T20:08:46.729Z,34.7
2023-04-11T20:10:46.768Z,36.1
2023-04-11T20:12:46.828Z,35
2023-04-11T20:14:46.747Z,32
2023-04-11T20:16:46.738Z,33.9
2023-04-11T20:18:46.737Z,35.5
2023-04-11T20:20:46.723Z,36.3
2023-04-11T20:22:46.730Z,36.7
2023-04-11T20:24:46.788Z,36.4
2023-04-11T20:26:46.766Z,35.9
2023-04-11T20:28:46.771Z,37.2
2023-04-11T20:30:46.825Z,36.9
2023-04-11T20:32:46.839Z,34.4
2023-04-11T20:34:46.787Z,34.9
2023-04-11T20:36:46.709Z,34
2023-04-11T20:38:46.778Z,32.2
2023-04-11T20:40:46.803Z,32.9
2023-04-11T20:42:46.707Z,34.5
2023-04-11T20:44:46.726Z,35.9
2023-04-11T20:46:46.716Z,36.4
2023-04-11T20:48:46.688Z,36.4
2023-04-11T20:50:46.741Z,37
2023-04-11T20:52:46.682Z,35.5
2023-04-11T20:54:46.703Z,35.4
2023-04-11T20:56:46.676Z,35.4
2023-04-11T20:58:46.699Z,36.2
2023-04-11T21:00:46.765Z,35.2
2023-04-11T21:02:46.820Z,36.6
2023-04-11T21:04:46.724Z,34.3
2023-04-11T21:06:46.709Z,36.7
2023-04-11T21:08:46.741Z,36.3
2023-04-11T21:10:46.693Z,37
2023-04-11T21:12:47.829Z,35.9
2023-04-11T21:14:46.666Z,36
2023-04-11T21:16:46.668Z,37.2
2023-04-11T21:18:46.679Z,37.1
2023-04-11T21:20:46.697Z,37.1
2023-04-11T21:22:46.692Z,36.7
2023-04-11T21:24:46.666Z,36.8
2023-04-11T21:26:46.660Z,36.3
2023-04-11T21:28:46.703Z,36.6
2023-04-11T21:30:46.672Z,36.4
2023-04-11T21:32:46.666Z,35.9
2023-04-11T21:34:46.627Z,36.2
2023-04-11T21:36:46.667Z,36.1
2023-04-11T21:38:46.646Z,35.5
2023-04-11T21:40:46.670Z,36.2
2023-04-11T21:42:48.154Z,35.6
2023-04-11T21:44:46.655Z,35.2
2023-04-11T21:46:46.688Z,35.9
2023-04-11T21:48:46.670Z,35.7
2023-04-11T21:50:46.648Z,36.4
2023-04-11T21:52:46.651Z,36.5
2023-04-11T21:54:46.627Z,36.7
2023-04-11T21:56:46.654Z,36.2
2023-04-11T21:58:46.642Z,35.9
2023-04-11T22:00:46.644Z,34.5
2023-04-11T22:02:46.807Z,35.9
2023-04-11T22:05:01.545Z,36.2
2023-04-11T22:06:46.649Z,36.7
2023-04-11T22:08:46.596Z,37.4
2023-04-11T22:10:48.436Z,36.2
2023-04-11T22:12:46.610Z,36.7
2023-04-11T22:14:46.619Z,37.2
2023-04-11T22:16:46.638Z,36.8
2023-04-11T22:18:46.647Z,37.4
2023-04-11T22:20:46.635Z,37.6
2023-04-11T22:22:46.674Z,37.4
2023-04-11T22:24:46.661Z,37.1
2023-04-11T22:26:46.611Z,37.2
2023-04-11T22:28:46.588Z,37.2
2023-04-11T22:30:46.632Z,37
2023-04-11T22:32:46.640Z,35.8
2023-04-11T22:34:46.601Z,36.4
2023-04-11T22:36:46.613Z,36.8
2023-04-11T22:38:46.605Z,35.8
2023-04-11T22:40:46.597Z,36.3
2023-04-11T22:42:46.589Z,36.2
2023-04-11T22:44:46.548Z,36.6
2023-04-11T22:46:46.561Z,37
2023-04-11T22:48:46.589Z,37.3
2023-04-11T22:50:46.588Z,37.3
2023-04-11T22:52:46.551Z,37.2
2023-04-11T22:54:46.568Z,38
2023-04-11T22:56:46.563Z,37.4
2023-04-11T22:58:46.569Z,38
2023-04-11T23:00:46.569Z,38.3
2023-04-11T23:02:46.626Z,37
2023-04-11T23:04:46.620Z,37.8
2023-04-11T23:06:46.552Z,38.2
2023-04-11T23:08:46.655Z,38.5
2023-04-11T23:10:46.535Z,38.9
2023-04-11T23:12:46.563Z,38.2
2023-04-11T23:14:46.539Z,39.1
2023-04-11T23:16:46.631Z,39.4
2023-04-11T23:18:46.540Z,39.4
2023-04-11T23:20:46.533Z,39.5
2023-04-11T23:22:46.521Z,39.8
2023-04-11T23:24:46.583Z,39.7
2023-04-11T23:26:46.518Z,39.7
2023-04-11T23:28:46.550Z,40.2
2023-04-11T23:30:46.586Z,40.5
2023-04-11T23:32:46.611Z,40.6
2023-04-11T23:34:46.567Z,40.7
2023-04-11T23:36:46.511Z,40.8
2023-04-11T23:38:46.526Z,40.9
2023-04-11T23:40:46.517Z,41.1
2023-04-11T23:42:46.505Z,41.4
2023-04-11T23:44:46.543Z,41.4
2023-04-11T23:46:46.504Z,41.6
2023-04-11T23:48:46.494Z,41.8
2023-04-11T23:50:46.568Z,41.9
2023-04-11T23:52:46.490Z,41.9
2023-04-11T23:54:46.472Z,42.2
2023-04-11T23:56:46.512Z,42.3
2023-04-11T23:58:46.511Z,42.5
